Roos, Michigan
Current Conditions -  °F | °C
As of 9:34 PM on Saturday 22 Nov 2014 (Local Time) from KOSC Reporting Station
Haze Haze  
Wind Chill: 33°   Ceiling: 300
Heat Index: 38°   Visibility: 0.75mi
Dew Point: 38°   Wind: 7mph
Humidity: 100%   Direction: 220°SW
Pressure: 29.84"   Gusts: NA
Location:  44.2265°N, 83.986°W
Report Text: KOSC 230234Z AUTO 22006KT 3/4SM BR OVC003 03/03 A2984 RMK AO2 T00330033
Loading
Personal Weather Stations






























Interactive Weather Map New forecast layout! Learn more

10-Day Weather Forecast

Advertisements
Track Severe Weather on mobile